sensor_id;sensor_type;location;lat;lon;timestamp;P1;durP1;ratioP1;P2;durP2;ratioP2
63012;SDS011;62113;45.624;11.700;2023-02-22T00:00:43;160.38;;;71.78;;
63012;SDS011;62113;45.624;11.700;2023-02-22T00:03:20;155.88;;;72.57;;
63012;SDS011;62113;45.624;11.700;2023-02-22T00:05:50;162.23;;;73.30;;
63012;SDS011;62113;45.624;11.700;2023-02-22T00:08:19;161.65;;;75.20;;
63012;SDS011;62113;45.624;11.700;2023-02-22T00:10:46;167.82;;;77.38;;
63012;SDS011;62113;45.624;11.700;2023-02-22T00:13:15;171.43;;;73.07;;
63012;SDS011;62113;45.624;11.700;2023-02-22T00:15:42;167.80;;;74.55;;
63012;SDS011;62113;45.624;11.700;2023-02-22T00:18:09;157.07;;;75.78;;
63012;SDS011;62113;45.624;11.700;2023-02-22T00:20:37;163.32;;;72.28;;
63012;SDS011;62113;45.624;11.700;2023-02-22T00:23:04;166.50;;;76.47;;
63012;SDS011;62113;45.624;11.700;2023-02-22T00:25:32;159.18;;;73.07;;
63012;SDS011;62113;45.624;11.700;2023-02-22T00:30:26;180.32;;;75.63;;
63012;SDS011;62113;45.624;11.700;2023-02-22T00:32:54;174.55;;;78.10;;
63012;SDS011;62113;45.624;11.700;2023-02-22T00:35:21;186.73;;;81.78;;
63012;SDS011;62113;45.624;11.700;2023-02-22T00:37:49;181.77;;;78.93;;
63012;SDS011;62113;45.624;11.700;2023-02-22T00:40:18;181.55;;;79.57;;
63012;SDS011;62113;45.624;11.700;2023-02-22T00:42:46;176.30;;;77.43;;
63012;SDS011;62113;45.624;11.700;2023-02-22T00:45:12;182.23;;;80.55;;
63012;SDS011;62113;45.624;11.700;2023-02-22T00:47:40;159.82;;;75.70;;
63012;SDS011;62113;45.624;11.700;2023-02-22T00:50:06;171.93;;;74.03;;
63012;SDS011;62113;45.624;11.700;2023-02-22T00:52:32;171.20;;;75.30;;
63012;SDS011;62113;45.624;11.700;2023-02-22T00:54:59;164.05;;;75.40;;
63012;SDS011;62113;45.624;11.700;2023-02-22T00:57:26;174.07;;;78.00;;
63012;SDS011;62113;45.624;11.700;2023-02-22T00:59:51;172.88;;;77.30;;
63012;SDS011;62113;45.624;11.700;2023-02-22T01:02:17;163.15;;;75.55;;
63012;SDS011;62113;45.624;11.700;2023-02-22T01:04:43;177.27;;;80.13;;
63012;SDS011;62113;45.624;11.700;2023-02-22T01:07:08;182.93;;;79.57;;
63012;SDS011;62113;45.624;11.700;2023-02-22T01:09:34;192.10;;;81.78;;
63012;SDS011;62113;45.624;11.700;2023-02-22T01:12:01;182.18;;;81.07;;
63012;SDS011;62113;45.624;11.700;2023-02-22T01:14:27;186.63;;;80.28;;
63012;SDS011;62113;45.624;11.700;2023-02-22T01:16:53;181.43;;;80.78;;
63012;SDS011;62113;45.624;11.700;2023-02-22T01:19:20;174.52;;;80.25;;
63012;SDS011;62113;45.624;11.700;2023-02-22T01:24:12;199.10;;;80.83;;
63012;SDS011;62113;45.624;11.700;2023-02-22T01:26:47;185.25;;;82.05;;
63012;SDS011;62113;45.624;11.700;2023-02-22T01:29:15;178.93;;;80.80;;
63012;SDS011;62113;45.624;11.700;2023-02-22T01:34:08;187.20;;;80.95;;
63012;SDS011;62113;45.624;11.700;2023-02-22T01:39:00;193.57;;;77.83;;
63012;SDS011;62113;45.624;11.700;2023-02-22T01:41:26;205.07;;;81.45;;
63012;SDS011;62113;45.624;11.700;2023-02-22T01:43:51;184.02;;;81.72;;
63012;SDS011;62113;45.624;11.700;2023-02-22T01:49:00;208.98;;;90.22;;
63012;SDS011;62113;45.624;11.700;2023-02-22T01:51:31;198.20;;;85.88;;
63012;SDS011;62113;45.624;11.700;2023-02-22T01:54:09;202.38;;;86.43;;
63012;SDS011;62113;45.624;11.700;2023-02-22T01:56:40;194.05;;;82.72;;
63012;SDS011;62113;45.624;11.700;2023-02-22T01:59:34;197.48;;;84.00;;
63012;SDS011;62113;45.624;11.700;2023-02-22T02:02:03;186.27;;;79.90;;
63012;SDS011;62113;45.624;11.700;2023-02-22T02:04:29;205.63;;;83.93;;
63012;SDS011;62113;45.624;11.700;2023-02-22T02:06:57;198.32;;;83.68;;
63012;SDS011;62113;45.624;11.700;2023-02-22T02:09:35;202.18;;;84.13;;
63012;SDS011;62113;45.624;11.700;2023-02-22T02:12:08;197.80;;;84.30;;
63012;SDS011;62113;45.624;11.700;2023-02-22T02:14:36;194.88;;;82.65;;
63012;SDS011;62113;45.624;11.700;2023-02-22T02:17:04;193.02;;;87.35;;
63012;SDS011;62113;45.624;11.700;2023-02-22T02:19:58;204.23;;;88.90;;
63012;SDS011;62113;45.624;11.700;2023-02-22T02:28:12;235.73;;;99.38;;
63012;SDS011;62113;45.624;11.700;2023-02-22T02:30:53;217.05;;;94.80;;
63012;SDS011;62113;45.624;11.700;2023-02-22T02:33:32;220.32;;;93.03;;
63012;SDS011;62113;45.624;11.700;2023-02-22T02:38:54;201.68;;;87.22;;
63012;SDS011;62113;45.624;11.700;2023-02-22T02:41:26;187.35;;;83.47;;
63012;SDS011;62113;45.624;11.700;2023-02-22T02:43:58;191.55;;;82.93;;
63012;SDS011;62113;45.624;11.700;2023-02-22T02:46:38;175.35;;;79.55;;
63012;SDS011;62113;45.624;11.700;2023-02-22T02:49:35;179.27;;;79.20;;
63012;SDS011;62113;45.624;11.700;2023-02-22T02:52:06;177.65;;;75.03;;
63012;SDS011;62113;45.624;11.700;2023-02-22T02:54:34;168.10;;;79.07;;
63012;SDS011;62113;45.624;11.700;2023-02-22T02:57:02;161.38;;;78.57;;
63012;SDS011;62113;45.624;11.700;2023-02-22T02:59:32;170.77;;;80.05;;
63012;SDS011;62113;45.624;11.700;2023-02-22T03:18:24;160.88;;;73.68;;
63012;SDS011;62113;45.624;11.700;2023-02-22T03:21:00;163.52;;;73.63;;
63012;SDS011;62113;45.624;11.700;2023-02-22T03:26:13;161.10;;;74.20;;
63012;SDS011;62113;45.624;11.700;2023-02-22T03:28:44;175.55;;;77.25;;
63012;SDS011;62113;45.624;11.700;2023-02-22T03:31:14;162.40;;;73.28;;
63012;SDS011;62113;45.624;11.700;2023-02-22T03:33:46;158.10;;;74.15;;
63012;SDS011;62113;45.624;11.700;2023-02-22T03:36:21;155.52;;;73.80;;
63012;SDS011;62113;45.624;11.700;2023-02-22T03:38:57;165.60;;;76.63;;
63012;SDS011;62113;45.624;11.700;2023-02-22T03:41:25;163.73;;;74.85;;
63012;SDS011;62113;45.624;11.700;2023-02-22T03:44:03;168.00;;;76.00;;
63012;SDS011;62113;45.624;11.700;2023-02-22T03:46:32;170.90;;;76.78;;
63012;SDS011;62113;45.624;11.700;2023-02-22T03:51:48;157.93;;;73.55;;
63012;SDS011;62113;45.624;11.700;2023-02-22T03:54:14;155.13;;;74.68;;
63012;SDS011;62113;45.624;11.700;2023-02-22T03:56:44;168.43;;;74.47;;
63012;SDS011;62113;45.624;11.700;2023-02-22T03:59:15;162.70;;;72.57;;
63012;SDS011;62113;45.624;11.700;2023-02-22T04:01:41;152.80;;;72.15;;
63012;SDS011;62113;45.624;11.700;2023-02-22T04:04:07;152.10;;;69.15;;
63012;SDS011;62113;45.624;11.700;2023-02-22T04:06:33;150.55;;;69.70;;
63012;SDS011;62113;45.624;11.700;2023-02-22T04:08:58;159.05;;;72.70;;
63012;SDS011;62113;45.624;11.700;2023-02-22T04:11:24;144.35;;;68.93;;
63012;SDS011;62113;45.624;11.700;2023-02-22T04:13:50;162.65;;;70.05;;
63012;SDS011;62113;45.624;11.700;2023-02-22T04:16:15;156.93;;;71.70;;
63012;SDS011;62113;45.624;11.700;2023-02-22T04:18:41;143.77;;;67.70;;
63012;SDS011;62113;45.624;11.700;2023-02-22T04:21:07;148.20;;;68.85;;
63012;SDS011;62113;45.624;11.700;2023-02-22T04:23:33;143.10;;;66.33;;
63012;SDS011;62113;45.624;11.700;2023-02-22T04:25:59;146.35;;;66.90;;
63012;SDS011;62113;45.624;11.700;2023-02-22T04:28:24;139.95;;;64.97;;
63012;SDS011;62113;45.624;11.700;2023-02-22T04:30:50;148.25;;;68.65;;
63012;SDS011;62113;45.624;11.700;2023-02-22T04:33:15;148.68;;;63.38;;
63012;SDS011;62113;45.624;11.700;2023-02-22T04:35:41;138.85;;;66.18;;
63012;SDS011;62113;45.624;11.700;2023-02-22T04:38:07;139.05;;;66.53;;
63012;SDS011;62113;45.624;11.700;2023-02-22T04:40:33;140.65;;;69.32;;
63012;SDS011;62113;45.624;11.700;2023-02-22T04:42:59;152.93;;;70.28;;
63012;SDS011;62113;45.624;11.700;2023-02-22T04:45:25;158.02;;;72.63;;
63012;SDS011;62113;45.624;11.700;2023-02-22T04:47:51;156.90;;;70.80;;
63012;SDS011;62113;45.624;11.700;2023-02-22T04:50:16;156.60;;;69.38;;
63012;SDS011;62113;45.624;11.700;2023-02-22T04:52:43;171.43;;;73.13;;
63012;SDS011;62113;45.624;11.700;2023-02-22T04:55:09;158.70;;;69.88;;
63012;SDS011;62113;45.624;11.700;2023-02-22T04:57:35;153.70;;;70.93;;
63012;SDS011;62113;45.624;11.700;2023-02-22T05:00:02;149.93;;;71.15;;
63012;SDS011;62113;45.624;11.700;2023-02-22T05:02:29;154.55;;;71.57;;
63012;SDS011;62113;45.624;11.700;2023-02-22T05:04:54;151.68;;;68.78;;
63012;SDS011;62113;45.624;11.700;2023-02-22T05:07:20;162.82;;;72.05;;
63012;SDS011;62113;45.624;11.700;2023-02-22T05:09:45;158.15;;;72.63;;
63012;SDS011;62113;45.624;11.700;2023-02-22T05:12:11;160.65;;;74.40;;
63012;SDS011;62113;45.624;11.700;2023-02-22T05:14:37;157.32;;;71.10;;
63012;SDS011;62113;45.624;11.700;2023-02-22T05:17:02;159.85;;;72.10;;
63012;SDS011;62113;45.624;11.700;2023-02-22T05:19:28;151.45;;;74.70;;
63012;SDS011;62113;45.624;11.700;2023-02-22T05:21:54;167.85;;;73.60;;
63012;SDS011;62113;45.624;11.700;2023-02-22T05:24:20;158.90;;;74.83;;
63012;SDS011;62113;45.624;11.700;2023-02-22T05:26:46;165.27;;;74.35;;
63012;SDS011;62113;45.624;11.700;2023-02-22T05:29:12;145.82;;;71.07;;
63012;SDS011;62113;45.624;11.700;2023-02-22T05:31:38;151.88;;;71.93;;
63012;SDS011;62113;45.624;11.700;2023-02-22T05:34:05;140.45;;;67.03;;
63012;SDS011;62113;45.624;11.700;2023-02-22T05:36:31;142.98;;;67.90;;
63012;SDS011;62113;45.624;11.700;2023-02-22T05:38:57;135.45;;;62.20;;
63012;SDS011;62113;45.624;11.700;2023-02-22T05:41:22;133.57;;;64.10;;
63012;SDS011;62113;45.624;11.700;2023-02-22T05:43:48;128.40;;;62.10;;
63012;SDS011;62113;45.624;11.700;2023-02-22T05:46:13;124.25;;;58.55;;
63012;SDS011;62113;45.624;11.700;2023-02-22T05:48:39;121.40;;;59.67;;
63012;SDS011;62113;45.624;11.700;2023-02-22T05:51:05;126.28;;;59.75;;
63012;SDS011;62113;45.624;11.700;2023-02-22T05:53:31;116.07;;;55.78;;
63012;SDS011;62113;45.624;11.700;2023-02-22T05:55:57;110.38;;;55.05;;
63012;SDS011;62113;45.624;11.700;2023-02-22T05:58:22;113.60;;;54.90;;
63012;SDS011;62113;45.624;11.700;2023-02-22T06:00:48;121.65;;;56.38;;
63012;SDS011;62113;45.624;11.700;2023-02-22T06:03:14;117.88;;;57.85;;
63012;SDS011;62113;45.624;11.700;2023-02-22T06:05:39;123.50;;;57.72;;
63012;SDS011;62113;45.624;11.700;2023-02-22T06:08:05;124.78;;;56.75;;
63012;SDS011;62113;45.624;11.700;2023-02-22T06:10:31;120.00;;;61.78;;
63012;SDS011;62113;45.624;11.700;2023-02-22T06:12:57;125.65;;;63.08;;
63012;SDS011;62113;45.624;11.700;2023-02-22T06:15:25;124.05;;;62.08;;
63012;SDS011;62113;45.624;11.700;2023-02-22T06:17:51;149.85;;;69.35;;
63012;SDS011;62113;45.624;11.700;2023-02-22T06:20:19;130.35;;;62.92;;
63012;SDS011;62113;45.624;11.700;2023-02-22T06:22:50;142.23;;;68.40;;
63012;SDS011;62113;45.624;11.700;2023-02-22T06:25:18;148.80;;;64.70;;
63012;SDS011;62113;45.624;11.700;2023-02-22T06:27:45;148.10;;;66.95;;
63012;SDS011;62113;45.624;11.700;2023-02-22T06:30:11;130.13;;;63.60;;
63012;SDS011;62113;45.624;11.700;2023-02-22T06:32:37;131.73;;;62.97;;
63012;SDS011;62113;45.624;11.700;2023-02-22T06:35:03;126.55;;;62.72;;
63012;SDS011;62113;45.624;11.700;2023-02-22T06:37:29;136.52;;;64.00;;
63012;SDS011;62113;45.624;11.700;2023-02-22T06:39:55;142.27;;;66.38;;
63012;SDS011;62113;45.624;11.700;2023-02-22T06:42:20;129.40;;;61.28;;
63012;SDS011;62113;45.624;11.700;2023-02-22T06:44:46;119.28;;;61.17;;
63012;SDS011;62113;45.624;11.700;2023-02-22T06:47:12;330.17;;;188.43;;
63012;SDS011;62113;45.624;11.700;2023-02-22T06:49:37;133.13;;;65.60;;
63012;SDS011;62113;45.624;11.700;2023-02-22T06:52:04;127.43;;;62.97;;
63012;SDS011;62113;45.624;11.700;2023-02-22T06:54:30;122.95;;;60.80;;
63012;SDS011;62113;45.624;11.700;2023-02-22T06:56:56;142.05;;;68.55;;
63012;SDS011;62113;45.624;11.700;2023-02-22T06:59:21;152.52;;;69.85;;
63012;SDS011;62113;45.624;11.700;2023-02-22T07:01:47;145.75;;;71.43;;
63012;SDS011;62113;45.624;11.700;2023-02-22T07:04:13;156.65;;;74.53;;
63012;SDS011;62113;45.624;11.700;2023-02-22T07:06:43;151.02;;;73.40;;
63012;SDS011;62113;45.624;11.700;2023-02-22T07:09:13;165.38;;;74.80;;
63012;SDS011;62113;45.624;11.700;2023-02-22T07:11:40;155.90;;;74.30;;
63012;SDS011;62113;45.624;11.700;2023-02-22T07:14:06;168.82;;;76.68;;
63012;SDS011;62113;45.624;11.700;2023-02-22T07:16:31;153.98;;;73.13;;
63012;SDS011;62113;45.624;11.700;2023-02-22T07:18:57;163.05;;;73.80;;
63012;SDS011;62113;45.624;11.700;2023-02-22T07:21:24;155.57;;;73.60;;
63012;SDS011;62113;45.624;11.700;2023-02-22T07:23:52;153.27;;;71.65;;
63012;SDS011;62113;45.624;11.700;2023-02-22T07:26:18;162.52;;;77.20;;
63012;SDS011;62113;45.624;11.700;2023-02-22T07:28:44;166.30;;;75.25;;
63012;SDS011;62113;45.624;11.700;2023-02-22T07:31:10;166.30;;;77.15;;
63012;SDS011;62113;45.624;11.700;2023-02-22T07:33:36;160.85;;;75.13;;
63012;SDS011;62113;45.624;11.700;2023-02-22T07:36:02;168.48;;;76.72;;
63012;SDS011;62113;45.624;11.700;2023-02-22T07:38:28;174.18;;;79.40;;
63012;SDS011;62113;45.624;11.700;2023-02-22T07:40:53;177.77;;;77.22;;
63012;SDS011;62113;45.624;11.700;2023-02-22T07:43:27;158.40;;;73.18;;
63012;SDS011;62113;45.624;11.700;2023-02-22T07:45:55;163.47;;;73.93;;
63012;SDS011;62113;45.624;11.700;2023-02-22T07:48:23;168.65;;;77.30;;
63012;SDS011;62113;45.624;11.700;2023-02-22T07:50:51;176.40;;;81.80;;
63012;SDS011;62113;45.624;11.700;2023-02-22T07:53:18;181.50;;;87.25;;
63012;SDS011;62113;45.624;11.700;2023-02-22T07:55:54;181.43;;;84.20;;
63012;SDS011;62113;45.624;11.700;2023-02-22T07:58:21;184.93;;;89.05;;
63012;SDS011;62113;45.624;11.700;2023-02-22T08:00:48;194.05;;;92.10;;
63012;SDS011;62113;45.624;11.700;2023-02-22T08:03:15;185.25;;;91.13;;
63012;SDS011;62113;45.624;11.700;2023-02-22T08:05:46;188.38;;;87.60;;
63012;SDS011;62113;45.624;11.700;2023-02-22T08:08:14;182.20;;;89.22;;
63012;SDS011;62113;45.624;11.700;2023-02-22T08:10:40;174.05;;;87.05;;
63012;SDS011;62113;45.624;11.700;2023-02-22T08:13:06;180.25;;;89.88;;
63012;SDS011;62113;45.624;11.700;2023-02-22T08:15:33;188.98;;;88.32;;
63012;SDS011;62113;45.624;11.700;2023-02-22T08:18:01;182.77;;;87.70;;
63012;SDS011;62113;45.624;11.700;2023-02-22T08:20:29;185.23;;;88.15;;
63012;SDS011;62113;45.624;11.700;2023-02-22T08:22:55;188.27;;;89.88;;
63012;SDS011;62113;45.624;11.700;2023-02-22T08:25:23;188.25;;;89.72;;
63012;SDS011;62113;45.624;11.700;2023-02-22T08:27:51;178.07;;;85.55;;
63012;SDS011;62113;45.624;11.700;2023-02-22T08:30:22;173.85;;;82.72;;
63012;SDS011;62113;45.624;11.700;2023-02-22T08:32:49;150.55;;;76.88;;
63012;SDS011;62113;45.624;11.700;2023-02-22T08:35:15;172.52;;;76.95;;
63012;SDS011;62113;45.624;11.700;2023-02-22T08:37:43;171.48;;;76.28;;
63012;SDS011;62113;45.624;11.700;2023-02-22T08:40:20;155.07;;;72.43;;
63012;SDS011;62113;45.624;11.700;2023-02-22T08:42:47;151.20;;;71.85;;
63012;SDS011;62113;45.624;11.700;2023-02-22T08:45:13;143.98;;;71.50;;
63012;SDS011;62113;45.624;11.700;2023-02-22T08:47:39;153.65;;;72.93;;
63012;SDS011;62113;45.624;11.700;2023-02-22T08:50:05;157.05;;;72.70;;
63012;SDS011;62113;45.624;11.700;2023-02-22T08:52:32;147.45;;;71.13;;
63012;SDS011;62113;45.624;11.700;2023-02-22T08:54:59;149.70;;;72.57;;
63012;SDS011;62113;45.624;11.700;2023-02-22T08:57:25;154.27;;;74.07;;
63012;SDS011;62113;45.624;11.700;2023-02-22T08:59:51;168.48;;;74.25;;
63012;SDS011;62113;45.624;11.700;2023-02-22T09:02:18;159.60;;;76.60;;
63012;SDS011;62113;45.624;11.700;2023-02-22T09:04:46;158.57;;;74.35;;
63012;SDS011;62113;45.624;11.700;2023-02-22T09:07:12;177.68;;;86.68;;
63012;SDS011;62113;45.624;11.700;2023-02-22T09:09:40;148.02;;;68.28;;
63012;SDS011;62113;45.624;11.700;2023-02-22T09:12:07;132.98;;;64.28;;
63012;SDS011;62113;45.624;11.700;2023-02-22T09:14:32;133.23;;;62.05;;
63012;SDS011;62113;45.624;11.700;2023-02-22T09:16:58;147.35;;;66.22;;
63012;SDS011;62113;45.624;11.700;2023-02-22T09:19:24;141.43;;;66.30;;
63012;SDS011;62113;45.624;11.700;2023-02-22T09:21:56;142.55;;;66.30;;
63012;SDS011;62113;45.624;11.700;2023-02-22T09:24:23;131.35;;;61.75;;
63012;SDS011;62113;45.624;11.700;2023-02-22T09:26:49;122.47;;;59.10;;
63012;SDS011;62113;45.624;11.700;2023-02-22T09:29:24;117.70;;;59.10;;
63012;SDS011;62113;45.624;11.700;2023-02-22T09:31:51;128.65;;;60.88;;
63012;SDS011;62113;45.624;11.700;2023-02-22T09:34:19;121.18;;;59.20;;
63012;SDS011;62113;45.624;11.700;2023-02-22T09:36:47;114.18;;;56.75;;
63012;SDS011;62113;45.624;11.700;2023-02-22T09:41:47;100.25;;;49.60;;
63012;SDS011;62113;45.624;11.700;2023-02-22T09:47:07;108.03;;;50.22;;
63012;SDS011;62113;45.624;11.700;2023-02-22T09:49:41;100.18;;;50.10;;
63012;SDS011;62113;45.624;11.700;2023-02-22T09:52:22;99.55;;;48.72;;
63012;SDS011;62113;45.624;11.700;2023-02-22T09:55:02;96.13;;;50.38;;
63012;SDS011;62113;45.624;11.700;2023-02-22T09:57:37;102.38;;;53.85;;
63012;SDS011;62113;45.624;11.700;2023-02-22T10:00:11;99.35;;;49.97;;
63012;SDS011;62113;45.624;11.700;2023-02-22T10:05:59;84.53;;;45.90;;
63012;SDS011;62113;45.624;11.700;2023-02-22T10:08:33;89.25;;;47.13;;
63012;SDS011;62113;45.624;11.700;2023-02-22T10:11:05;94.45;;;46.25;;
63012;SDS011;62113;45.624;11.700;2023-02-22T10:16:26;86.78;;;44.50;;
63012;SDS011;62113;45.624;11.700;2023-02-22T10:27:12;100.82;;;50.20;;
63012;SDS011;62113;45.624;11.700;2023-02-22T10:29:47;82.38;;;43.03;;
63012;SDS011;62113;45.624;11.700;2023-02-22T10:32:42;93.10;;;46.47;;
63012;SDS011;62113;45.624;11.700;2023-02-22T10:35:15;95.50;;;46.22;;
63012;SDS011;62113;45.624;11.700;2023-02-22T10:37:45;83.90;;;39.15;;
63012;SDS011;62113;45.624;11.700;2023-02-22T10:40:15;86.53;;;43.10;;
63012;SDS011;62113;45.624;11.700;2023-02-22T10:42:42;93.88;;;45.10;;
63012;SDS011;62113;45.624;11.700;2023-02-22T10:45:20;84.22;;;38.83;;
63012;SDS011;62113;45.624;11.700;2023-02-22T10:47:50;86.28;;;42.70;;
63012;SDS011;62113;45.624;11.700;2023-02-22T10:50:19;97.30;;;43.15;;
63012;SDS011;62113;45.624;11.700;2023-02-22T10:52:46;89.97;;;43.60;;
63012;SDS011;62113;45.624;11.700;2023-02-22T10:55:12;84.35;;;42.85;;
63012;SDS011;62113;45.624;11.700;2023-02-22T10:57:40;86.15;;;43.03;;
63012;SDS011;62113;45.624;11.700;2023-02-22T11:00:15;100.57;;;46.92;;
63012;SDS011;62113;45.624;11.700;2023-02-22T11:02:56;95.10;;;48.13;;
63012;SDS011;62113;45.624;11.700;2023-02-22T11:05:25;98.50;;;49.42;;
63012;SDS011;62113;45.624;11.700;2023-02-22T11:10:54;90.93;;;45.60;;
63012;SDS011;62113;45.624;11.700;2023-02-22T11:13:40;88.72;;;40.03;;
63012;SDS011;62113;45.624;11.700;2023-02-22T11:16:19;106.65;;;50.30;;
63012;SDS011;62113;45.624;11.700;2023-02-22T11:18:59;100.68;;;48.75;;
63012;SDS011;62113;45.624;11.700;2023-02-22T11:21:27;106.35;;;49.65;;
63012;SDS011;62113;45.624;11.700;2023-02-22T11:24:06;99.90;;;49.03;;
63012;SDS011;62113;45.624;11.700;2023-02-22T11:26:39;95.47;;;48.63;;
63012;SDS011;62113;45.624;11.700;2023-02-22T11:29:12;105.72;;;49.20;;
63012;SDS011;62113;45.624;11.700;2023-02-22T11:32:11;98.20;;;48.65;;
63012;SDS011;62113;45.624;11.700;2023-02-22T11:34:39;100.63;;;47.08;;
63012;SDS011;62113;45.624;11.700;2023-02-22T11:39:47;81.53;;;40.92;;
63012;SDS011;62113;45.624;11.700;2023-02-22T11:42:27;85.93;;;45.35;;
63012;SDS011;62113;45.624;11.700;2023-02-22T11:45:11;91.47;;;47.10;;
63012;SDS011;62113;45.624;11.700;2023-02-22T11:47:48;99.80;;;47.25;;
63012;SDS011;62113;45.624;11.700;2023-02-22T11:56:12;81.15;;;40.20;;
63012;SDS011;62113;45.624;11.700;2023-02-22T11:58:24;93.65;;;47.00;;
63012;SDS011;62113;45.624;11.700;2023-02-22T12:01:25;92.28;;;44.83;;
63012;SDS011;62113;45.624;11.700;2023-02-22T12:04:09;83.53;;;39.70;;
63012;SDS011;62113;45.624;11.700;2023-02-22T12:11:43;95.38;;;45.13;;
63012;SDS011;62113;45.624;11.700;2023-02-22T12:19:38;95.00;;;46.17;;
63012;SDS011;62113;45.624;11.700;2023-02-22T12:22:16;97.55;;;48.10;;
63012;SDS011;62113;45.624;11.700;2023-02-22T12:24:47;84.88;;;42.92;;
63012;SDS011;62113;45.624;11.700;2023-02-22T12:27:32;71.28;;;36.42;;
63012;SDS011;62113;45.624;11.700;2023-02-22T12:32:52;91.90;;;44.92;;
63012;SDS011;62113;45.624;11.700;2023-02-22T12:35:30;87.88;;;42.20;;
63012;SDS011;62113;45.624;11.700;2023-02-22T12:53:52;98.78;;;45.53;;
63012;SDS011;62113;45.624;11.700;2023-02-22T12:56:31;100.75;;;46.75;;
63012;SDS011;62113;45.624;11.700;2023-02-22T13:04:46;86.05;;;41.20;;
63012;SDS011;62113;45.624;11.700;2023-02-22T13:16:05;82.45;;;41.63;;
63012;SDS011;62113;45.624;11.700;2023-02-22T13:18:55;88.28;;;42.75;;
63012;SDS011;62113;45.624;11.700;2023-02-22T13:21:30;89.22;;;42.15;;
63012;SDS011;62113;45.624;11.700;2023-02-22T13:26:48;95.97;;;46.22;;
63012;SDS011;62113;45.624;11.700;2023-02-22T13:29:26;95.50;;;46.85;;
63012;SDS011;62113;45.624;11.700;2023-02-22T13:50:57;95.57;;;44.75;;
63012;SDS011;62113;45.624;11.700;2023-02-22T13:56:21;86.85;;;43.35;;
63012;SDS011;62113;45.624;11.700;2023-02-22T13:58:50;90.72;;;44.67;;
63012;SDS011;62113;45.624;11.700;2023-02-22T14:01:41;101.90;;;48.72;;
63012;SDS011;62113;45.624;11.700;2023-02-22T14:06:58;99.70;;;47.17;;
63012;SDS011;62113;45.624;11.700;2023-02-22T14:09:52;98.97;;;47.53;;
63012;SDS011;62113;45.624;11.700;2023-02-22T14:17:34;105.00;;;50.38;;
63012;SDS011;62113;45.624;11.700;2023-02-22T14:22:43;106.13;;;53.30;;
63012;SDS011;62113;45.624;11.700;2023-02-22T14:27:58;101.20;;;52.08;;
63012;SDS011;62113;45.624;11.700;2023-02-22T14:30:31;109.32;;;53.33;;
63012;SDS011;62113;45.624;11.700;2023-02-22T14:33:00;103.78;;;52.08;;
63012;SDS011;62113;45.624;11.700;2023-02-22T14:35:37;105.40;;;53.33;;
63012;SDS011;62113;45.624;11.700;2023-02-22T14:38:06;105.78;;;51.03;;
63012;SDS011;62113;45.624;11.700;2023-02-22T14:40:42;108.07;;;51.88;;
63012;SDS011;62113;45.624;11.700;2023-02-22T14:43:13;103.38;;;51.45;;
63012;SDS011;62113;45.624;11.700;2023-02-22T14:45:51;104.03;;;52.97;;
63012;SDS011;62113;45.624;11.700;2023-02-22T14:48:32;102.45;;;52.05;;
63012;SDS011;62113;45.624;11.700;2023-02-22T14:54:07;109.57;;;53.97;;
63012;SDS011;62113;45.624;11.700;2023-02-22T14:59:17;111.37;;;54.27;;
63012;SDS011;62113;45.624;11.700;2023-02-22T15:02:10;106.88;;;51.63;;
63012;SDS011;62113;45.624;11.700;2023-02-22T15:04:37;101.35;;;52.03;;
63012;SDS011;62113;45.624;11.700;2023-02-22T15:07:18;106.55;;;51.03;;
63012;SDS011;62113;45.624;11.700;2023-02-22T15:09:51;115.53;;;52.97;;
63012;SDS011;62113;45.624;11.700;2023-02-22T15:12:41;109.63;;;54.38;;
63012;SDS011;62113;45.624;11.700;2023-02-22T15:15:32;112.32;;;53.83;;
63012;SDS011;62113;45.624;11.700;2023-02-22T15:18:02;113.90;;;55.00;;
63012;SDS011;62113;45.624;11.700;2023-02-22T15:20:30;107.93;;;52.50;;
63012;SDS011;62113;45.624;11.700;2023-02-22T15:23:00;99.25;;;51.08;;
63012;SDS011;62113;45.624;11.700;2023-02-22T15:25:27;98.85;;;50.97;;
63012;SDS011;62113;45.624;11.700;2023-02-22T15:27:58;105.30;;;50.17;;
63012;SDS011;62113;45.624;11.700;2023-02-22T15:30:27;109.28;;;52.10;;
63012;SDS011;62113;45.624;11.700;2023-02-22T15:32:53;104.97;;;50.00;;
63012;SDS011;62113;45.624;11.700;2023-02-22T15:37:59;107.05;;;53.08;;
63012;SDS011;62113;45.624;11.700;2023-02-22T15:40:37;105.25;;;50.65;;
63012;SDS011;62113;45.624;11.700;2023-02-22T15:43:07;98.25;;;48.22;;
63012;SDS011;62113;45.624;11.700;2023-02-22T15:45:41;100.78;;;49.25;;
63012;SDS011;62113;45.624;11.700;2023-02-22T15:48:07;102.50;;;51.38;;
63012;SDS011;62113;45.624;11.700;2023-02-22T15:50:34;103.00;;;48.13;;
63012;SDS011;62113;45.624;11.700;2023-02-22T15:53:07;94.72;;;48.22;;
63012;SDS011;62113;45.624;11.700;2023-02-22T15:55:45;103.78;;;51.28;;
63012;SDS011;62113;45.624;11.700;2023-02-22T16:00:39;107.97;;;48.80;;
63012;SDS011;62113;45.624;11.700;2023-02-22T16:03:11;101.25;;;49.38;;
63012;SDS011;62113;45.624;11.700;2023-02-22T16:05:43;100.53;;;49.58;;
63012;SDS011;62113;45.624;11.700;2023-02-22T16:08:20;106.68;;;49.60;;
63012;SDS011;62113;45.624;11.700;2023-02-22T16:11:08;109.30;;;50.70;;
63012;SDS011;62113;45.624;11.700;2023-02-22T16:13:39;98.60;;;47.33;;
63012;SDS011;62113;45.624;11.700;2023-02-22T16:16:48;115.18;;;51.08;;
63012;SDS011;62113;45.624;11.700;2023-02-22T16:22:30;95.20;;;47.30;;
63012;SDS011;62113;45.624;11.700;2023-02-22T16:32:45;111.00;;;52.20;;
63012;SDS011;62113;45.624;11.700;2023-02-22T16:35:12;96.63;;;48.60;;
63012;SDS011;62113;45.624;11.700;2023-02-22T16:37:50;100.85;;;49.88;;
63012;SDS011;62113;45.624;11.700;2023-02-22T16:40:22;100.32;;;51.53;;
63012;SDS011;62113;45.624;11.700;2023-02-22T16:43:06;107.85;;;52.20;;
63012;SDS011;62113;45.624;11.700;2023-02-22T16:45:35;117.30;;;54.63;;
63012;SDS011;62113;45.624;11.700;2023-02-22T16:48:01;101.38;;;49.53;;
63012;SDS011;62113;45.624;11.700;2023-02-22T16:50:43;110.13;;;49.85;;
63012;SDS011;62113;45.624;11.700;2023-02-22T16:53:08;117.88;;;53.72;;
63012;SDS011;62113;45.624;11.700;2023-02-22T16:55:34;113.25;;;54.67;;
63012;SDS011;62113;45.624;11.700;2023-02-22T16:58:00;115.40;;;54.87;;
63012;SDS011;62113;45.624;11.700;2023-02-22T17:00:26;110.53;;;55.03;;
63012;SDS011;62113;45.624;11.700;2023-02-22T17:02:58;109.82;;;51.15;;
63012;SDS011;62113;45.624;11.700;2023-02-22T17:05:28;112.88;;;53.53;;
63012;SDS011;62113;45.624;11.700;2023-02-22T17:08:00;113.22;;;54.25;;
63012;SDS011;62113;45.624;11.700;2023-02-22T17:10:26;100.60;;;48.95;;
63012;SDS011;62113;45.624;11.700;2023-02-22T17:12:53;110.00;;;54.00;;